createdAt,value
2022-12-24T00:01:01.404Z,83.95
2022-12-24T00:03:28.121Z,82.35
2022-12-24T00:05:54.785Z,83.70
2022-12-24T00:08:21.509Z,86.00
2022-12-24T00:10:52.660Z,83.07
2022-12-24T00:13:20.174Z,84.07
2022-12-24T00:15:47.169Z,83.03
2022-12-24T00:18:13.766Z,85.57
2022-12-24T00:20:40.599Z,83.80
2022-12-24T00:23:07.155Z,83.18
2022-12-24T00:25:33.849Z,82.85
2022-12-24T00:28:00.462Z,85.35
2022-12-24T00:30:27.224Z,82.20
2022-12-24T00:32:54.719Z,83.07
2022-12-24T00:35:21.975Z,83.25
2022-12-24T00:37:49.372Z,83.07
2022-12-24T00:40:16.920Z,87.10
2022-12-24T00:42:43.903Z,85.97
2022-12-24T00:45:12.149Z,88.38
2022-12-24T00:47:38.789Z,88.22
2022-12-24T00:50:06.265Z,83.93
2022-12-24T00:52:32.950Z,84.20
2022-12-24T00:54:59.530Z,87.95
2022-12-24T00:57:26.108Z,87.65
2022-12-24T00:59:52.662Z,84.80
2022-12-24T01:02:19.659Z,84.25
2022-12-24T01:05:05.006Z,84.10
2022-12-24T01:07:32.201Z,83.13
2022-12-24T01:09:58.871Z,87.47
2022-12-24T01:12:25.726Z,84.32
2022-12-24T01:14:52.299Z,84.95
2022-12-24T01:17:18.942Z,85.07
2022-12-24T01:19:45.522Z,83.57
2022-12-24T01:22:12.092Z,83.07
2022-12-24T01:24:41.318Z,78.82
2022-12-24T01:27:08.106Z,80.35
2022-12-24T01:29:34.962Z,80.68
2022-12-24T01:32:01.551Z,84.43
2022-12-24T01:34:28.155Z,85.32
2022-12-24T01:36:54.740Z,82.80
2022-12-24T01:39:21.400Z,82.07
2022-12-24T01:42:06.524Z,86.60
2022-12-24T01:47:20.720Z,77.53
2022-12-24T01:49:53.890Z,80.85
2022-12-24T01:52:24.657Z,82.88
2022-12-24T01:54:57.616Z,82.55
2022-12-24T01:57:30.012Z,84.80
2022-12-24T02:00:00.144Z,83.30
2022-12-24T02:02:28.334Z,88.82
2022-12-24T02:04:59.060Z,86.97
2022-12-24T02:07:25.931Z,89.28
2022-12-24T02:09:57.252Z,86.88
2022-12-24T02:12:25.253Z,88.20
2022-12-24T02:14:53.182Z,88.88
2022-12-24T02:17:32.305Z,89.63
2022-12-24T02:20:27.752Z,90.35
2022-12-24T02:26:23.824Z,86.05
2022-12-24T02:29:03.611Z,92.88
2022-12-24T02:31:41.059Z,92.45
2022-12-24T02:34:16.705Z,89.47
2022-12-24T02:37:09.714Z,92.07
2022-12-24T02:39:45.683Z,92.30
2022-12-24T02:42:15.883Z,91.22
2022-12-24T02:44:50.562Z,90.15
2022-12-24T02:49:47.420Z,93.03
2022-12-24T02:52:48.041Z,95.40
2022-12-24T02:55:29.317Z,94.18
2022-12-24T02:58:04.658Z,90.85
2022-12-24T03:01:16.224Z,92.70
2022-12-24T03:04:15.937Z,93.95
2022-12-24T03:06:58.579Z,91.40
2022-12-24T03:09:32.811Z,92.38
2022-12-24T03:12:06.236Z,95.30
2022-12-24T03:14:34.847Z,87.07
2022-12-24T03:17:03.166Z,91.30
2022-12-24T03:19:31.015Z,90.35
2022-12-24T03:22:02.408Z,89.78
2022-12-24T03:24:29.031Z,93.03
2022-12-24T03:26:56.699Z,91.13
2022-12-24T03:29:23.451Z,92.70
2022-12-24T03:31:58.762Z,95.00
2022-12-24T03:34:25.420Z,94.60
2022-12-24T03:36:52.236Z,92.38
2022-12-24T03:39:19.000Z,91.50
2022-12-24T03:41:45.634Z,92.93
2022-12-24T03:44:12.190Z,93.75
2022-12-24T03:46:38.732Z,92.10
2022-12-24T03:49:05.312Z,92.10
2022-12-24T03:51:33.314Z,92.80
2022-12-24T03:54:00.259Z,90.72
2022-12-24T03:56:27.105Z,89.75
2022-12-24T03:58:53.666Z,91.30
2022-12-24T04:01:20.375Z,87.50
2022-12-24T04:03:47.084Z,86.43
2022-12-24T04:06:15.993Z,87.35
2022-12-24T04:08:42.660Z,89.78
2022-12-24T04:11:15.847Z,86.57
2022-12-24T04:13:43.043Z,92.53
2022-12-24T04:16:12.831Z,92.75
2022-12-24T04:18:40.407Z,90.50
2022-12-24T04:21:08.149Z,87.93
2022-12-24T04:23:36.426Z,83.10
2022-12-24T04:26:05.373Z,77.32
2022-12-24T04:28:33.330Z,69.40
2022-12-24T04:31:02.689Z,68.10
2022-12-24T04:33:29.534Z,65.93
2022-12-24T04:36:00.017Z,83.55
2022-12-24T04:38:27.082Z,83.85
2022-12-24T04:41:23.034Z,96.22
2022-12-24T04:43:51.803Z,94.60
2022-12-24T04:46:21.419Z,101.05
2022-12-24T04:48:49.724Z,112.40
2022-12-24T04:51:17.209Z,96.20
2022-12-24T04:53:44.410Z,90.07
2022-12-24T04:56:19.949Z,96.85
2022-12-24T04:58:46.717Z,77.57
2022-12-24T05:01:16.330Z,75.28
2022-12-24T05:03:42.938Z,64.57
2022-12-24T05:06:12.703Z,64.75
2022-12-24T05:08:39.584Z,61.20
2022-12-24T05:11:07.138Z,56.47
2022-12-24T05:13:42.305Z,54.60
2022-12-24T05:16:13.351Z,50.05
2022-12-24T05:18:40.519Z,53.75
2022-12-24T05:21:15.104Z,51.17
2022-12-24T05:24:00.473Z,48.33
2022-12-24T05:26:48.997Z,51.08
2022-12-24T05:29:15.994Z,51.75
2022-12-24T05:31:45.008Z,49.55
2022-12-24T05:34:13.615Z,48.65
2022-12-24T05:36:40.579Z,49.47
2022-12-24T05:39:13.349Z,50.58
2022-12-24T05:41:40.369Z,54.50
2022-12-24T05:44:06.950Z,58.65
2022-12-24T05:46:33.600Z,59.10
2022-12-24T05:49:00.175Z,54.53
2022-12-24T05:51:26.726Z,59.15
2022-12-24T05:53:53.316Z,59.65
2022-12-24T05:56:23.022Z,55.75
2022-12-24T05:58:52.191Z,51.90
2022-12-24T06:01:19.707Z,49.38
2022-12-24T06:03:46.592Z,47.15
2022-12-24T06:06:19.213Z,45.65
2022-12-24T06:08:45.973Z,45.03
2022-12-24T06:11:14.705Z,48.65
2022-12-24T06:13:42.386Z,48.13
2022-12-24T06:16:12.670Z,47.15
2022-12-24T06:18:39.351Z,52.58
2022-12-24T06:21:06.926Z,57.42
2022-12-24T06:23:37.651Z,55.33
2022-12-24T06:26:07.083Z,55.72
2022-12-24T06:28:36.710Z,59.55
2022-12-24T06:31:05.138Z,56.97
2022-12-24T06:33:33.028Z,59.17
2022-12-24T06:35:59.775Z,63.08
2022-12-24T06:38:26.378Z,65.00
2022-12-24T06:40:53.014Z,71.38
2022-12-24T06:43:20.909Z,74.13
2022-12-24T06:45:48.501Z,72.82
2022-12-24T06:48:15.797Z,67.85
2022-12-24T06:50:43.283Z,72.03
2022-12-24T06:53:11.041Z,67.68
2022-12-24T06:55:38.134Z,70.18
2022-12-24T06:58:04.931Z,65.65
2022-12-24T07:00:31.892Z,70.18
2022-12-24T07:02:58.666Z,69.93
2022-12-24T07:05:25.846Z,70.63
2022-12-24T07:07:52.601Z,73.50
2022-12-24T07:10:20.517Z,72.85
2022-12-24T07:12:47.529Z,69.47
2022-12-24T07:15:14.713Z,72.55
2022-12-24T07:17:41.578Z,73.50
2022-12-24T07:20:11.642Z,70.35
2022-12-24T07:22:38.216Z,72.20
2022-12-24T07:25:05.292Z,72.75
2022-12-24T07:27:31.922Z,74.25
2022-12-24T07:29:58.483Z,73.40
2022-12-24T07:32:25.034Z,72.38
2022-12-24T07:34:51.663Z,71.82
2022-12-24T07:37:18.200Z,70.80
2022-12-24T07:39:45.334Z,77.50
2022-12-24T07:42:11.942Z,65.43
2022-12-24T07:44:38.530Z,66.70
2022-12-24T07:47:05.153Z,68.88
2022-12-24T07:49:31.862Z,67.55
2022-12-24T07:51:58.433Z,68.75
2022-12-24T07:54:25.030Z,65.60
2022-12-24T07:56:51.591Z,64.85
2022-12-24T07:59:18.157Z,65.93
2022-12-24T08:01:45.689Z,63.33
2022-12-24T08:04:12.533Z,65.07
2022-12-24T08:06:39.386Z,60.97
2022-12-24T08:09:06.273Z,56.80
2022-12-24T08:11:32.902Z,58.88
2022-12-24T08:13:59.508Z,57.33
2022-12-24T08:16:26.157Z,54.17
2022-12-24T08:18:52.837Z,54.63
2022-12-24T08:21:19.391Z,50.47
2022-12-24T08:23:46.952Z,48.83
2022-12-24T08:26:14.019Z,47.78
2022-12-24T08:28:40.694Z,45.35
2022-12-24T08:31:07.517Z,44.20
2022-12-24T08:33:34.249Z,41.83
2022-12-24T08:36:02.050Z,43.22
2022-12-24T08:38:29.136Z,44.20
2022-12-24T08:40:56.840Z,53.47
2022-12-24T08:43:23.540Z,47.03
2022-12-24T08:45:50.444Z,56.85
2022-12-24T08:48:17.389Z,57.38
2022-12-24T08:50:44.201Z,60.15
2022-12-24T08:53:11.277Z,64.55
2022-12-24T08:55:37.882Z,65.75
2022-12-24T08:58:04.468Z,64.45
2022-12-24T09:00:31.375Z,65.50
2022-12-24T09:02:58.419Z,69.32
2022-12-24T09:05:26.097Z,65.13
2022-12-24T09:07:53.232Z,68.82
2022-12-24T09:10:19.869Z,63.15
2022-12-24T09:12:47.961Z,56.25
2022-12-24T09:15:14.871Z,54.20
2022-12-24T09:17:41.598Z,50.33
2022-12-24T09:20:09.459Z,48.88
2022-12-24T09:22:37.972Z,47.03
2022-12-24T09:25:06.340Z,47.30
2022-12-24T09:27:33.363Z,45.95
2022-12-24T09:29:59.930Z,45.75
2022-12-24T09:32:26.523Z,47.25
2022-12-24T09:34:53.937Z,45.88
2022-12-24T09:37:20.535Z,46.63
2022-12-24T09:39:47.279Z,45.60
2022-12-24T09:42:16.694Z,47.47
2022-12-24T09:45:08.426Z,46.85
2022-12-24T09:47:39.845Z,48.58
2022-12-24T09:50:36.911Z,51.55
2022-12-24T09:53:12.932Z,53.92
2022-12-24T09:56:00.544Z,57.20
2022-12-24T09:58:37.548Z,78.55
2022-12-24T10:01:04.476Z,78.63
2022-12-24T10:03:32.049Z,102.28
2022-12-24T10:06:06.536Z,152.68
2022-12-24T10:08:43.544Z,182.50
2022-12-24T10:11:21.928Z,174.57
2022-12-24T10:14:01.215Z,153.70
2022-12-24T10:16:39.560Z,136.80
2022-12-24T10:19:31.735Z,122.57
2022-12-24T10:22:29.911Z,127.88
2022-12-24T10:25:22.317Z,121.18
2022-12-24T10:27:48.903Z,149.43
2022-12-24T10:30:22.104Z,133.52
2022-12-24T10:32:51.055Z,125.18
2022-12-24T10:35:25.710Z,135.30
2022-12-24T10:40:28.563Z,111.90
2022-12-24T10:42:55.284Z,124.03
2022-12-24T10:45:26.078Z,148.52
2022-12-24T10:48:01.927Z,154.90
2022-12-24T10:50:35.406Z,159.80
2022-12-24T10:53:32.348Z,170.77
2022-12-24T10:56:08.103Z,181.75
2022-12-24T10:58:35.653Z,185.85
2022-12-24T11:01:02.691Z,211.82
2022-12-24T11:03:36.951Z,258.05
2022-12-24T11:06:18.455Z,343.08
2022-12-24T11:08:45.776Z,401.25
2022-12-24T11:11:20.674Z,232.30
2022-12-24T11:13:50.025Z,228.60
2022-12-24T11:16:19.396Z,194.30
2022-12-24T11:18:51.626Z,57.30
2022-12-24T11:21:21.085Z,142.60
2022-12-24T11:23:56.675Z,35.45
2022-12-24T11:26:25.835Z,51.15
2022-12-24T11:29:25.665Z,105.32
2022-12-24T11:31:53.169Z,97.82
2022-12-24T11:34:22.449Z,123.95
2022-12-24T11:36:51.200Z,85.78
2022-12-24T11:39:25.815Z,62.42
2022-12-24T11:44:31.522Z,73.68
2022-12-24T11:46:58.199Z,66.68
2022-12-24T11:49:26.332Z,69.93
2022-12-24T11:52:11.221Z,60.30
2022-12-24T11:57:31.493Z,58.08
2022-12-24T11:59:58.270Z,58.20
2022-12-24T12:02:39.836Z,59.85
2022-12-24T12:05:18.682Z,57.88
2022-12-24T12:07:50.396Z,61.10
2022-12-24T12:10:28.645Z,66.28
2022-12-24T12:13:03.544Z,60.38
2022-12-24T12:15:35.908Z,66.28
2022-12-24T12:18:16.204Z,61.65
2022-12-24T12:20:51.840Z,41.88
2022-12-24T12:23:30.111Z,37.95
2022-12-24T12:26:24.267Z,41.17
2022-12-24T12:29:18.827Z,31.50
2022-12-24T12:31:50.810Z,29.35
2022-12-24T12:34:26.036Z,27.85
2022-12-24T12:36:57.557Z,26.17
2022-12-24T12:39:24.613Z,23.33
2022-12-24T12:42:10.055Z,38.45
2022-12-24T12:44:41.347Z,36.78
2022-12-24T12:47:38.132Z,44.05
2022-12-24T12:50:33.416Z,32.78
2022-12-24T12:55:29.365Z,67.88
2022-12-24T12:58:05.643Z,51.75
2022-12-24T13:00:38.744Z,52.17
2022-12-24T13:03:30.210Z,42.42
2022-12-24T13:06:44.725Z,50.03
2022-12-24T13:09:17.237Z,48.38
2022-12-24T13:11:58.788Z,77.03
2022-12-24T13:14:43.844Z,66.15
2022-12-24T13:17:34.008Z,55.47
2022-12-24T13:20:15.922Z,86.82
2022-12-24T13:22:57.744Z,91.90
2022-12-24T13:25:33.144Z,83.28
2022-12-24T13:28:20.753Z,75.80
2022-12-24T13:30:52.677Z,81.38
2022-12-24T13:33:37.385Z,104.05
2022-12-24T13:36:14.119Z,43.78
2022-12-24T13:38:54.640Z,22.27
2022-12-24T13:41:38.916Z,23.80
2022-12-24T13:44:23.577Z,27.88
2022-12-24T13:47:18.624Z,32.28
2022-12-24T13:49:54.321Z,30.48
2022-12-24T13:52:42.573Z,33.65
2022-12-24T13:55:15.676Z,31.90
2022-12-24T13:58:01.045Z,33.92
2022-12-24T14:00:32.532Z,30.85
2022-12-24T14:03:06.022Z,29.05
2022-12-24T14:05:40.354Z,29.88
2022-12-24T14:08:11.767Z,28.85
2022-12-24T14:10:46.020Z,26.90
2022-12-24T14:13:40.623Z,24.88
2022-12-24T14:16:14.909Z,22.88
2022-12-24T14:18:50.098Z,22.45
2022-12-24T14:21:26.830Z,23.80
2022-12-24T14:23:59.933Z,23.00
2022-12-24T14:26:45.364Z,22.80
2022-12-24T14:29:26.628Z,22.77
2022-12-24T14:31:55.442Z,24.27
2022-12-24T14:34:22.830Z,24.15
2022-12-24T14:36:51.905Z,25.52
2022-12-24T14:39:21.607Z,25.08
2022-12-24T14:42:12.989Z,28.02
2022-12-24T14:44:54.536Z,28.77
2022-12-24T14:47:30.958Z,31.15
2022-12-24T14:50:03.990Z,32.40
2022-12-24T14:55:32.257Z,35.00
2022-12-24T14:58:24.022Z,34.40
2022-12-24T15:00:52.060Z,35.38
2022-12-24T15:03:21.650Z,38.03
2022-12-24T15:06:09.245Z,38.75
2022-12-24T15:08:48.642Z,37.65
2022-12-24T15:11:20.009Z,40.03
2022-12-24T15:13:53.914Z,45.05
2022-12-24T15:16:41.038Z,47.33
2022-12-24T15:19:21.605Z,54.35
2022-12-24T15:21:48.318Z,54.80
2022-12-24T15:24:44.491Z,75.30
2022-12-24T15:27:32.136Z,78.32
2022-12-24T15:29:59.163Z,95.00
2022-12-24T15:32:25.835Z,100.55
2022-12-24T15:34:54.927Z,96.60
2022-12-24T15:37:37.767Z,103.47
2022-12-24T15:40:07.899Z,102.50
2022-12-24T15:42:36.485Z,110.40
2022-12-24T15:45:05.574Z,100.20
2022-12-24T15:47:38.908Z,92.85
2022-12-24T15:50:18.680Z,93.40
2022-12-24T15:52:46.646Z,71.15
2022-12-24T15:55:37.771Z,70.72
2022-12-24T15:58:25.962Z,54.75
2022-12-24T16:01:09.197Z,43.50
2022-12-24T16:03:39.181Z,43.97
2022-12-24T16:06:11.653Z,38.53
2022-12-24T16:08:40.162Z,39.13
2022-12-24T16:11:12.895Z,40.08
2022-12-24T16:13:58.179Z,40.53
2022-12-24T16:16:39.911Z,39.53
2022-12-24T16:19:15.335Z,37.40
2022-12-24T16:21:43.720Z,37.70
2022-12-24T16:24:13.140Z,37.28
2022-12-24T16:26:40.345Z,33.72
2022-12-24T16:29:07.367Z,34.28
2022-12-24T16:31:39.151Z,34.10
2022-12-24T16:34:06.129Z,27.45
2022-12-24T16:36:32.993Z,26.88
2022-12-24T16:39:18.137Z,26.42
2022-12-24T16:42:03.455Z,25.88
2022-12-24T16:44:30.105Z,25.92
2022-12-24T16:47:00.359Z,26.02
2022-12-24T16:49:27.464Z,25.63
2022-12-24T16:51:54.045Z,24.70
2022-12-24T16:54:20.737Z,24.92
2022-12-24T16:56:47.319Z,24.08
2022-12-24T16:59:19.044Z,24.17
2022-12-24T17:01:46.711Z,24.63
2022-12-24T17:04:14.482Z,25.35
2022-12-24T17:06:41.241Z,25.25
2022-12-24T17:09:10.088Z,25.05
2022-12-24T17:11:37.131Z,24.33
2022-12-24T17:14:08.002Z,24.15
2022-12-24T17:16:37.519Z,26.83
2022-12-24T17:19:05.066Z,25.25
2022-12-24T17:21:31.866Z,24.65
2022-12-24T17:23:58.702Z,24.48
2022-12-24T17:26:25.283Z,24.92
2022-12-24T17:28:56.827Z,25.23
2022-12-24T17:31:24.650Z,25.67
2022-12-24T17:33:53.019Z,24.80
2022-12-24T17:36:20.710Z,24.55
2022-12-24T17:38:47.590Z,24.27
2022-12-24T17:41:17.487Z,25.65
2022-12-24T17:43:44.443Z,26.55
2022-12-24T17:46:17.027Z,25.30
2022-12-24T17:48:44.455Z,25.63
2022-12-24T17:51:13.431Z,26.88
2022-12-24T17:53:41.718Z,28.13
2022-12-24T17:56:12.336Z,30.55
2022-12-24T17:58:43.172Z,31.75
2022-12-24T18:01:15.768Z,34.10
2022-12-24T18:03:42.757Z,36.25
2022-12-24T18:06:11.058Z,38.53
2022-12-24T18:08:39.224Z,42.55
2022-12-24T18:11:18.044Z,47.25
2022-12-24T18:13:45.724Z,44.42
2022-12-24T18:16:35.945Z,44.80
2022-12-24T18:19:04.601Z,45.05
2022-12-24T18:21:32.694Z,52.72
2022-12-24T18:23:59.871Z,52.78
2022-12-24T18:26:28.968Z,53.35
2022-12-24T18:28:57.037Z,54.30
2022-12-24T18:31:24.528Z,57.58
2022-12-24T18:33:53.006Z,55.28
2022-12-24T18:36:20.467Z,57.22
2022-12-24T18:38:47.548Z,61.55
2022-12-24T18:41:18.517Z,56.50
2022-12-24T18:43:45.400Z,55.13
2022-12-24T18:46:17.618Z,54.10
2022-12-24T18:48:46.885Z,53.55
2022-12-24T18:51:14.187Z,50.40
2022-12-24T18:53:40.899Z,53.70
2022-12-24T18:56:13.731Z,53.83
2022-12-24T18:58:42.399Z,50.63
2022-12-24T19:01:29.627Z,50.28
2022-12-24T19:03:56.628Z,48.60
2022-12-24T19:06:24.225Z,47.13
2022-12-24T19:09:00.372Z,46.28
2022-12-24T19:11:30.461Z,42.92
2022-12-24T19:13:58.281Z,42.63
2022-12-24T19:16:25.466Z,41.42
2022-12-24T19:18:52.081Z,47.05
2022-12-24T19:21:19.232Z,45.38
2022-12-24T19:23:46.928Z,45.35
2022-12-24T19:26:15.206Z,48.78
2022-12-24T19:28:42.733Z,48.58
2022-12-24T19:31:13.014Z,45.35
2022-12-24T19:33:45.185Z,44.33
2022-12-24T19:36:15.196Z,44.30
2022-12-24T19:38:41.951Z,41.67
2022-12-24T19:41:16.409Z,36.97
2022-12-24T19:43:45.081Z,35.58
2022-12-24T19:46:15.639Z,34.50
2022-12-24T19:48:43.073Z,33.50
2022-12-24T19:51:12.244Z,36.13
2022-12-24T19:53:39.769Z,37.60
2022-12-24T19:56:07.290Z,44.08
2022-12-24T19:58:34.316Z,47.88
2022-12-24T20:01:14.507Z,58.67
2022-12-24T20:03:41.711Z,62.90
2022-12-24T20:06:11.307Z,61.13
2022-12-24T20:08:38.527Z,63.03
2022-12-24T20:11:09.629Z,60.90
2022-12-24T20:13:37.746Z,58.35
2022-12-24T20:16:09.896Z,56.22
2022-12-24T20:18:36.730Z,53.78
2022-12-24T20:21:06.791Z,48.45
2022-12-24T20:23:33.488Z,54.00
2022-12-24T20:26:02.241Z,59.08
2022-12-24T20:28:31.830Z,50.67
2022-12-24T20:30:58.512Z,55.85
2022-12-24T20:33:26.038Z,57.97
2022-12-24T20:35:52.869Z,59.45
2022-12-24T20:38:19.481Z,62.45
2022-12-24T20:40:46.693Z,56.97
2022-12-24T20:43:13.796Z,61.05
2022-12-24T20:45:41.045Z,59.92
2022-12-24T20:48:08.058Z,57.47
2022-12-24T20:50:34.661Z,51.03
2022-12-24T20:53:01.297Z,55.05
2022-12-24T20:55:27.926Z,55.78
2022-12-24T20:57:54.503Z,49.20
2022-12-24T21:00:21.536Z,50.00
2022-12-24T21:02:48.305Z,51.03
2022-12-24T21:05:15.378Z,47.10
2022-12-24T21:07:43.572Z,43.35
2022-12-24T21:10:12.356Z,45.15
2022-12-24T21:12:49.187Z,33.28
2022-12-24T21:15:21.981Z,40.60
2022-12-24T21:17:49.008Z,42.38
2022-12-24T21:20:15.848Z,43.28
2022-12-24T21:22:42.722Z,34.15
2022-12-24T21:25:10.598Z,32.20
2022-12-24T21:27:37.305Z,33.47
2022-12-24T21:30:09.062Z,31.65
2022-12-24T21:32:36.406Z,33.03
2022-12-24T21:35:04.441Z,30.70
2022-12-24T21:37:31.126Z,32.50
2022-12-24T21:39:57.679Z,29.98
2022-12-24T21:42:24.567Z,30.58
2022-12-24T21:44:51.148Z,28.33
2022-12-24T21:47:17.833Z,28.75
2022-12-24T21:50:02.842Z,28.17
2022-12-24T21:54:56.226Z,29.90
2022-12-24T21:57:41.661Z,26.98
2022-12-24T22:00:28.997Z,26.83
2022-12-24T22:02:57.642Z,27.30
2022-12-24T22:05:26.180Z,27.27
2022-12-24T22:08:12.521Z,27.30
2022-12-24T22:10:57.900Z,25.85
2022-12-24T22:13:25.465Z,24.90
2022-12-24T22:15:54.065Z,24.63
2022-12-24T22:18:23.695Z,24.05
2022-12-24T22:20:51.145Z,24.92
2022-12-24T22:23:18.981Z,24.02
2022-12-24T22:25:46.135Z,24.48
2022-12-24T22:28:12.808Z,23.80
2022-12-24T22:30:41.265Z,23.67
2022-12-24T22:33:08.911Z,23.23
2022-12-24T22:35:39.775Z,23.10
2022-12-24T22:38:09.854Z,24.05
2022-12-24T22:40:39.526Z,23.88
2022-12-24T22:43:06.124Z,23.27
2022-12-24T22:45:32.793Z,24.48
2022-12-24T22:47:59.372Z,24.20
2022-12-24T22:50:26.101Z,24.90
2022-12-24T22:52:53.944Z,25.55
2022-12-24T22:55:20.850Z,26.20
2022-12-24T22:57:47.683Z,26.52
2022-12-24T23:00:41.848Z,25.35
2022-12-24T23:03:09.574Z,27.85
2022-12-24T23:05:37.081Z,26.23
2022-12-24T23:08:04.747Z,27.02
2022-12-24T23:10:31.648Z,29.75
2022-12-24T23:13:17.393Z,30.98
2022-12-24T23:15:43.984Z,29.23
2022-12-24T23:18:11.412Z,32.13
2022-12-24T23:20:40.860Z,30.15
2022-12-24T23:23:07.439Z,31.58
2022-12-24T23:25:34.186Z,31.85
2022-12-24T23:28:00.775Z,31.45
2022-12-24T23:30:27.359Z,29.70
2022-12-24T23:32:54.936Z,30.25
2022-12-24T23:35:21.637Z,29.52
2022-12-24T23:37:48.211Z,33.13
2022-12-24T23:40:14.955Z,35.20
2022-12-24T23:42:41.671Z,36.17
2022-12-24T23:45:08.882Z,34.88
2022-12-24T23:47:35.792Z,35.75
2022-12-24T23:50:02.403Z,35.55
2022-12-24T23:52:28.982Z,36.92
2022-12-24T23:54:55.535Z,36.10
2022-12-24T23:57:22.103Z,33.92
2022-12-24T23:59:48.748Z,35.10
